createdAt,value
2022-08-19T00:01:38.026Z,99845.00
2022-08-19T00:04:07.569Z,99841.25
2022-08-19T00:06:35.152Z,99847.66
2022-08-19T00:09:02.173Z,99851.59
2022-08-19T00:11:28.846Z,99861.03
2022-08-19T00:13:57.507Z,99855.72
2022-08-19T00:16:26.412Z,99860.47
2022-08-19T00:18:54.735Z,99852.69
2022-08-19T00:21:21.309Z,99855.03
2022-08-19T00:23:48.301Z,99859.19
2022-08-19T00:26:14.834Z,99851.13
2022-08-19T00:28:41.333Z,99841.38
2022-08-19T00:31:08.656Z,99853.59
2022-08-19T00:33:35.443Z,99852.63
2022-08-19T00:36:05.463Z,99854.44
2022-08-19T00:38:37.306Z,99870.72
2022-08-19T00:41:05.984Z,99865.25
2022-08-19T00:43:33.135Z,99868.44
2022-08-19T00:45:59.876Z,99863.56
2022-08-19T00:48:26.335Z,99860.31
2022-08-19T00:50:56.463Z,99851.28
2022-08-19T00:53:27.352Z,99832.88
2022-08-19T00:55:56.041Z,99824.38
2022-08-19T00:58:28.324Z,99810.03
2022-08-19T01:00:55.054Z,99814.66
2022-08-19T01:03:24.553Z,99824.72
2022-08-19T01:05:52.916Z,99831.25
2022-08-19T01:08:21.323Z,99841.44
2022-08-19T01:10:53.136Z,99853.66
2022-08-19T01:13:22.139Z,99857.28
2022-08-19T01:15:58.384Z,99851.53
2022-08-19T01:18:27.450Z,99852.53
2022-08-19T01:20:57.146Z,99852.28
2022-08-19T01:23:43.268Z,99853.53
2022-08-19T01:26:15.955Z,99848.47
2022-08-19T01:28:45.269Z,99839.25
2022-08-19T01:31:27.422Z,99837.88
2022-08-19T01:33:56.258Z,99852.63
2022-08-19T01:36:30.771Z,99850.28
2022-08-19T01:38:59.145Z,99850.59
2022-08-19T01:41:25.975Z,99852.69
2022-08-19T01:44:17.127Z,99860.88
2022-08-19T01:46:40.572Z,99855.88
2022-08-19T01:49:08.369Z,99842.16
2022-08-19T01:51:39.578Z,99848.84
2022-08-19T01:54:07.841Z,99846.59
2022-08-19T01:56:34.331Z,99850.00
2022-08-19T01:59:04.808Z,99850.28
2022-08-19T02:01:32.898Z,99845.91
2022-08-19T02:04:01.585Z,99840.56
2022-08-19T02:06:28.832Z,99843.44
2022-08-19T02:08:57.369Z,99838.06
2022-08-19T02:11:34.413Z,99842.66
2022-08-19T02:14:04.606Z,99835.72
2022-08-19T02:16:31.629Z,99843.19
2022-08-19T02:19:01.386Z,99845.72
2022-08-19T02:21:28.412Z,99857.38
2022-08-19T02:23:55.130Z,99849.63
2022-08-19T02:26:22.539Z,99845.38
2022-08-19T02:28:49.526Z,99846.66
2022-08-19T02:31:19.013Z,99849.28
2022-08-19T02:33:46.435Z,99847.47
2022-08-19T02:36:14.407Z,99849.97
2022-08-19T02:38:42.712Z,99852.47
2022-08-19T02:41:20.124Z,99849.81
2022-08-19T02:44:22.749Z,99849.97
2022-08-19T02:46:34.571Z,99836.91
2022-08-19T02:49:05.809Z,99840.78
2022-08-19T02:51:41.552Z,99836.22
2022-08-19T02:54:10.119Z,99832.47
2022-08-19T02:56:39.283Z,99831.75
2022-08-19T02:59:11.796Z,99835.78
2022-08-19T03:01:40.735Z,99832.31
2022-08-19T03:04:09.231Z,99828.69
2022-08-19T03:06:45.348Z,99844.16
2022-08-19T03:09:12.752Z,99848.84
2022-08-19T03:11:39.453Z,99848.16
2022-08-19T03:14:07.935Z,99856.38
2022-08-19T03:16:40.560Z,99856.91
2022-08-19T03:19:06.979Z,99860.00
2022-08-19T03:21:34.987Z,99853.19
2022-08-19T03:24:07.582Z,99853.72
2022-08-19T03:26:35.045Z,99852.06
2022-08-19T03:29:05.868Z,99850.66
2022-08-19T03:31:43.871Z,99849.41
2022-08-19T03:34:16.674Z,99860.38
2022-08-19T03:36:43.176Z,99857.63
2022-08-19T03:39:10.833Z,99862.22
2022-08-19T03:41:45.734Z,99866.38
2022-08-19T03:44:17.011Z,99863.59
2022-08-19T03:46:46.672Z,99860.97
2022-08-19T03:49:13.975Z,99864.72
2022-08-19T03:51:42.995Z,99863.75
2022-08-19T03:54:12.574Z,99865.13
2022-08-19T03:56:40.152Z,99862.91
2022-08-19T03:59:09.092Z,99870.94
2022-08-19T04:01:36.266Z,99864.56
2022-08-19T04:04:03.441Z,99858.72
2022-08-19T04:06:34.900Z,99861.66
2022-08-19T04:09:04.609Z,99853.84
2022-08-19T04:11:43.789Z,99861.91
2022-08-19T04:14:14.385Z,99860.53
2022-08-19T04:16:41.026Z,99867.78
2022-08-19T04:19:07.721Z,99876.38
2022-08-19T04:21:34.645Z,99875.25
2022-08-19T04:24:02.247Z,99886.41
2022-08-19T04:26:34.825Z,99878.59
2022-08-19T04:29:06.535Z,99868.91
2022-08-19T04:31:37.988Z,99869.00
2022-08-19T04:34:08.375Z,99871.78
2022-08-19T04:36:37.289Z,99874.56
2022-08-19T04:39:09.186Z,99862.75
2022-08-19T04:42:11.660Z,99864.16
2022-08-19T04:44:39.860Z,99867.91
2022-08-19T04:47:12.891Z,99869.56
2022-08-19T04:49:39.296Z,99866.91
2022-08-19T04:52:05.836Z,99874.69
2022-08-19T04:54:38.230Z,99872.91
2022-08-19T04:57:07.740Z,99879.44
2022-08-19T04:59:34.649Z,99885.00
2022-08-19T05:02:01.524Z,99885.69
2022-08-19T05:04:29.576Z,99891.13
2022-08-19T05:07:00.066Z,99888.63
2022-08-19T05:09:28.765Z,99894.59
2022-08-19T05:12:15.351Z,99883.34
2022-08-19T05:14:41.994Z,99884.03
2022-08-19T05:17:26.702Z,99884.19
2022-08-19T05:20:13.298Z,99887.78
2022-08-19T05:22:40.326Z,99909.38
2022-08-19T05:25:12.923Z,99906.00
2022-08-19T05:27:40.202Z,99911.16
2022-08-19T05:30:07.187Z,99909.38
2022-08-19T05:32:33.719Z,99922.28
2022-08-19T05:35:00.317Z,99919.78
2022-08-19T05:37:28.392Z,99922.84
2022-08-19T05:39:55.765Z,99930.78
2022-08-19T05:42:23.889Z,99933.94
2022-08-19T05:44:51.759Z,99940.19
2022-08-19T05:47:20.773Z,99943.41
2022-08-19T05:49:48.254Z,99956.34
2022-08-19T05:52:18.729Z,99955.06
2022-08-19T05:54:51.470Z,99963.88
2022-08-19T05:57:19.717Z,99960.53
2022-08-19T05:59:49.105Z,99967.63
2022-08-19T06:02:15.607Z,99968.88
2022-08-19T06:04:43.821Z,99967.88
2022-08-19T06:07:12.848Z,99967.34
2022-08-19T06:09:41.114Z,99962.16
2022-08-19T06:12:10.486Z,99963.44
2022-08-19T06:14:40.236Z,99970.78
2022-08-19T06:17:08.466Z,99964.56
2022-08-19T06:19:34.916Z,99961.06
2022-08-19T06:22:08.486Z,99968.72
2022-08-19T06:24:36.111Z,99970.38
2022-08-19T06:27:04.254Z,99964.66
2022-08-19T06:29:31.130Z,99972.47
2022-08-19T06:32:00.607Z,99958.97
2022-08-19T06:34:29.797Z,99967.44
2022-08-19T06:36:58.487Z,99977.63
2022-08-19T06:39:28.050Z,99981.22
2022-08-19T06:41:58.915Z,99979.41
2022-08-19T06:44:27.656Z,99986.06
2022-08-19T06:46:55.778Z,99984.84
2022-08-19T06:49:23.465Z,99982.84
2022-08-19T06:51:51.875Z,99975.88
2022-08-19T06:54:20.099Z,99982.75
2022-08-19T06:56:47.481Z,99975.78
2022-08-19T06:59:17.624Z,99985.56
2022-08-19T07:01:47.721Z,99984.59
2022-08-19T07:04:21.845Z,99986.34
2022-08-19T07:06:55.138Z,99981.06
2022-08-19T07:09:22.047Z,99993.88
2022-08-19T07:11:51.601Z,99992.19
2022-08-19T07:14:20.390Z,99991.50
2022-08-19T07:16:49.868Z,99983.56
2022-08-19T07:19:18.645Z,99987.84
2022-08-19T07:21:47.217Z,99990.72
2022-08-19T07:24:13.765Z,99988.78
2022-08-19T07:26:42.713Z,99984.88
2022-08-19T07:29:10.729Z,99990.16
2022-08-19T07:31:37.986Z,99985.84
2022-08-19T07:34:10.291Z,99983.44
2022-08-19T07:36:41.486Z,99977.38
2022-08-19T07:39:20.749Z,99978.19
2022-08-19T07:41:48.310Z,99975.22
2022-08-19T07:44:16.674Z,99975.47
2022-08-19T07:46:49.276Z,99977.53
2022-08-19T07:49:20.249Z,99980.41
2022-08-19T07:51:49.604Z,99984.88
2022-08-19T07:54:17.000Z,99985.03
2022-08-19T07:56:43.525Z,99981.69
2022-08-19T07:59:10.188Z,99983.41
2022-08-19T08:01:41.670Z,99983.78
2022-08-19T08:04:26.969Z,99989.91
2022-08-19T08:07:12.799Z,99992.50
2022-08-19T08:09:42.678Z,99992.31
2022-08-19T08:12:33.499Z,99987.53
2022-08-19T08:15:08.279Z,99977.91
2022-08-19T08:17:49.638Z,99980.19
2022-08-19T08:20:18.858Z,99993.50
2022-08-19T08:23:05.576Z,99985.31
2022-08-19T08:25:34.207Z,99993.44
2022-08-19T08:28:01.314Z,99983.84
2022-08-19T08:30:32.883Z,99983.25
2022-08-19T08:33:00.292Z,99989.13
2022-08-19T08:35:28.948Z,99998.94
2022-08-19T08:37:56.696Z,99998.44
2022-08-19T08:40:28.872Z,99991.34
2022-08-19T08:43:07.320Z,99998.78
2022-08-19T08:45:46.397Z,99996.03
2022-08-19T08:48:47.726Z,100004.34
2022-08-19T08:51:31.926Z,99996.72
2022-08-19T08:54:05.428Z,99999.41
2022-08-19T08:59:13.685Z,99990.66
2022-08-19T09:01:40.552Z,100005.13
2022-08-19T09:04:08.442Z,100008.53
2022-08-19T09:06:54.251Z,99995.97
2022-08-19T09:09:41.999Z,99994.47
2022-08-19T09:12:27.063Z,99994.19
2022-08-19T09:15:02.442Z,100001.34
2022-08-19T09:17:36.418Z,100001.50
2022-08-19T09:20:09.405Z,99998.50
2022-08-19T09:22:37.283Z,100003.81
2022-08-19T09:25:06.641Z,100003.22
2022-08-19T09:27:42.218Z,100008.94
2022-08-19T09:30:14.434Z,99995.63
2022-08-19T09:32:43.173Z,100000.13
2022-08-19T09:35:10.578Z,99994.44
2022-08-19T09:37:37.500Z,99993.97
2022-08-19T09:40:05.463Z,99994.38
2022-08-19T09:42:35.455Z,99994.38
2022-08-19T09:45:04.967Z,99994.19
2022-08-19T09:47:31.813Z,99985.59
2022-08-19T09:49:58.978Z,99988.03
2022-08-19T09:52:25.968Z,99987.75
2022-08-19T09:54:59.563Z,99990.59
2022-08-19T09:57:26.008Z,99993.94
2022-08-19T09:59:52.434Z,100000.78
2022-08-19T10:02:22.322Z,99998.47
2022-08-19T10:05:07.788Z,99990.16
2022-08-19T10:07:36.537Z,100001.41
2022-08-19T10:10:07.693Z,100006.66
2022-08-19T10:12:35.278Z,99998.72
2022-08-19T10:15:02.398Z,99999.25
2022-08-19T10:17:31.632Z,100003.50
2022-08-19T10:20:00.894Z,99997.78
2022-08-19T10:22:27.445Z,100004.94
2022-08-19T10:24:54.562Z,100005.59
2022-08-19T10:27:21.637Z,99998.47
2022-08-19T10:29:48.927Z,100001.50
2022-08-19T10:32:16.062Z,99996.69
2022-08-19T10:34:48.024Z,100003.69
2022-08-19T10:37:23.770Z,99996.44
2022-08-19T10:39:55.485Z,99985.56
2022-08-19T10:42:22.277Z,99990.13
2022-08-19T10:44:49.069Z,99976.78
2022-08-19T10:47:25.059Z,99978.81
2022-08-19T10:50:13.457Z,99970.94
2022-08-19T10:52:48.907Z,99976.44
2022-08-19T10:55:36.262Z,99977.41
2022-08-19T10:58:03.007Z,99966.09
2022-08-19T11:00:31.719Z,99965.16
2022-08-19T11:02:58.439Z,99970.63
2022-08-19T11:05:24.957Z,99958.66
2022-08-19T11:07:52.717Z,99965.28
2022-08-19T11:10:21.777Z,99958.19
2022-08-19T11:12:49.302Z,99952.63
2022-08-19T11:15:16.177Z,99949.72
2022-08-19T11:17:44.732Z,99948.94
2022-08-19T11:20:13.509Z,99948.41
2022-08-19T11:22:41.880Z,99950.22
2022-08-19T11:25:11.375Z,99953.38
2022-08-19T11:27:45.367Z,99943.56
2022-08-19T11:30:14.326Z,99941.72
2022-08-19T11:32:45.899Z,99942.34
2022-08-19T11:35:15.197Z,99936.91
2022-08-19T11:37:41.662Z,99931.22
2022-08-19T11:40:08.871Z,99933.50
2022-08-19T11:42:53.875Z,99925.00
2022-08-19T11:45:20.531Z,99920.28
2022-08-19T11:47:48.255Z,99919.91
2022-08-19T11:50:15.969Z,99920.72
2022-08-19T11:52:43.596Z,99931.44
2022-08-19T11:55:10.324Z,99937.34
2022-08-19T11:57:36.744Z,99934.53
2022-08-19T12:00:06.894Z,99934.59
2022-08-19T12:02:33.341Z,99930.25
2022-08-19T12:05:03.293Z,99940.59
2022-08-19T12:07:32.513Z,99937.66
2022-08-19T12:09:58.919Z,99930.34
2022-08-19T12:12:25.708Z,99936.69
2022-08-19T12:14:57.406Z,99945.28
2022-08-19T12:17:26.044Z,99954.41
2022-08-19T12:19:52.633Z,99938.66
2022-08-19T12:22:19.694Z,99945.47
2022-08-19T12:24:46.132Z,99934.13
2022-08-19T12:27:13.078Z,99936.16
2022-08-19T12:29:39.791Z,99937.78
2022-08-19T12:32:06.200Z,99939.31
2022-08-19T12:34:33.587Z,99937.34
2022-08-19T12:37:02.873Z,99939.94
2022-08-19T12:39:29.282Z,99940.59
2022-08-19T12:41:55.734Z,99946.03
2022-08-19T12:44:28.749Z,99940.34
2022-08-19T12:46:56.818Z,99938.03
2022-08-19T12:49:45.706Z,99932.31
2022-08-19T12:52:16.182Z,99937.84
2022-08-19T12:54:44.149Z,99939.19
2022-08-19T12:57:11.923Z,99934.38
2022-08-19T12:59:39.425Z,99930.66
2022-08-19T13:02:07.789Z,99927.50
2022-08-19T13:04:37.238Z,99933.03
2022-08-19T13:07:04.657Z,99924.72
2022-08-19T13:09:31.096Z,99928.50
2022-08-19T13:11:57.792Z,99927.78
2022-08-19T13:14:24.271Z,99924.47
2022-08-19T13:16:53.547Z,99927.31
2022-08-19T13:19:21.990Z,99931.81
2022-08-19T13:21:50.906Z,99927.75
2022-08-19T13:24:31.394Z,99924.69
2022-08-19T13:27:01.759Z,99916.34
2022-08-19T13:29:47.117Z,99912.84
2022-08-19T13:32:32.032Z,99908.31
2022-08-19T13:34:58.556Z,99907.94
2022-08-19T13:37:42.104Z,99916.09
2022-08-19T13:40:22.582Z,99913.84
2022-08-19T13:42:51.507Z,99914.25
2022-08-19T13:45:23.845Z,99913.88
2022-08-19T13:47:57.012Z,99907.78
2022-08-19T13:50:32.327Z,99897.13
2022-08-19T13:52:58.877Z,99894.31
2022-08-19T13:55:26.344Z,99895.25
2022-08-19T13:57:55.089Z,99899.78
2022-08-19T14:00:24.814Z,99896.38
2022-08-19T14:02:53.452Z,99889.31
2022-08-19T14:05:21.417Z,99906.34
2022-08-19T14:07:49.048Z,99898.63
2022-08-19T14:10:16.389Z,99901.94
2022-08-19T14:12:43.472Z,99898.88
2022-08-19T14:15:12.546Z,99902.75
2022-08-19T14:17:41.185Z,99903.78
2022-08-19T14:20:10.745Z,99907.38
2022-08-19T14:22:39.303Z,99910.97
2022-08-19T14:25:08.563Z,99904.72
2022-08-19T14:27:36.300Z,99904.66
2022-08-19T14:30:05.034Z,99901.47
2022-08-19T14:32:31.431Z,99899.25
2022-08-19T14:34:57.827Z,99898.44
2022-08-19T14:37:24.291Z,99901.75
2022-08-19T14:39:51.776Z,99894.97
2022-08-19T14:42:20.021Z,99890.25
2022-08-19T14:44:46.582Z,99889.63
2022-08-19T14:47:13.370Z,99882.22
2022-08-19T14:49:41.217Z,99879.13
2022-08-19T14:52:11.279Z,99884.69
2022-08-19T14:54:37.675Z,99885.22
2022-08-19T14:57:04.290Z,99885.44
2022-08-19T14:59:30.741Z,99884.53
2022-08-19T15:01:57.270Z,99886.06
2022-08-19T15:04:23.735Z,99884.34
2022-08-19T15:06:51.718Z,99891.09
2022-08-19T15:09:18.193Z,99896.41
2022-08-19T15:11:44.775Z,99893.63
2022-08-19T15:14:11.266Z,99887.78
2022-08-19T15:16:38.967Z,99896.00
2022-08-19T15:19:05.391Z,99900.69
2022-08-19T15:21:31.899Z,99905.41
2022-08-19T15:23:59.550Z,99905.47
2022-08-19T15:26:28.546Z,99904.75
2022-08-19T15:28:55.033Z,99903.94
2022-08-19T15:31:25.369Z,99898.59
2022-08-19T15:33:58.818Z,99906.97
2022-08-19T15:36:27.329Z,99906.09
2022-08-19T15:38:54.217Z,99905.41
2022-08-19T15:41:23.948Z,99906.09
2022-08-19T15:44:03.862Z,99905.59
2022-08-19T15:46:33.392Z,99900.25
2022-08-19T15:49:00.693Z,99895.72
2022-08-19T15:51:30.323Z,99894.53
2022-08-19T15:53:57.575Z,99894.59
2022-08-19T15:56:27.198Z,99898.38
2022-08-19T15:59:12.771Z,99895.69
2022-08-19T16:01:57.663Z,99897.34
2022-08-19T16:04:43.090Z,99894.28
2022-08-19T16:07:10.210Z,99895.94
2022-08-19T16:09:36.638Z,99895.38
2022-08-19T16:12:05.852Z,99894.19
2022-08-19T16:14:35.158Z,99888.72
2022-08-19T16:17:01.911Z,99892.50
2022-08-19T16:19:28.325Z,99894.09
2022-08-19T16:21:56.393Z,99891.88
2022-08-19T16:24:25.539Z,99898.69
2022-08-19T16:26:52.723Z,99894.00
2022-08-19T16:29:33.278Z,99892.78
2022-08-19T16:32:01.034Z,99889.72
2022-08-19T16:34:29.794Z,99900.03
2022-08-19T16:36:56.227Z,99897.38
2022-08-19T16:39:23.691Z,99903.72
2022-08-19T16:41:50.963Z,99895.13
2022-08-19T16:44:19.432Z,99899.66
2022-08-19T16:46:57.347Z,99899.94
2022-08-19T16:49:53.100Z,99899.22
2022-08-19T16:52:13.019Z,99903.63
2022-08-19T16:54:41.808Z,99899.66
2022-08-19T16:57:11.752Z,99899.66
2022-08-19T16:59:39.456Z,99908.28
2022-08-19T17:02:15.337Z,99904.44
2022-08-19T17:04:41.836Z,99905.56
2022-08-19T17:07:09.761Z,99903.91
2022-08-19T17:09:36.705Z,99903.53
2022-08-19T17:12:04.708Z,99906.09
2022-08-19T17:14:31.085Z,99910.19
2022-08-19T17:16:57.590Z,99913.59
2022-08-19T17:19:24.019Z,99909.09
2022-08-19T17:21:50.446Z,99915.06
2022-08-19T17:24:17.046Z,99923.16
2022-08-19T17:26:43.872Z,99923.09
2022-08-19T17:29:10.434Z,99920.84
2022-08-19T17:31:37.361Z,99919.97
2022-08-19T17:34:04.541Z,99926.31
2022-08-19T17:36:32.546Z,99916.91
2022-08-19T17:39:00.691Z,99923.84
2022-08-19T17:41:28.723Z,99924.75
2022-08-19T17:43:55.318Z,99922.34
2022-08-19T17:46:21.966Z,99926.22
2022-08-19T17:48:52.968Z,99924.94
2022-08-19T17:51:41.933Z,99926.97
2022-08-19T17:54:15.226Z,99924.66
2022-08-19T17:56:42.430Z,99923.66
2022-08-19T17:59:13.979Z,99928.16
2022-08-19T18:01:53.591Z,99938.41
2022-08-19T18:04:25.481Z,99944.72
2022-08-19T18:06:54.764Z,99940.59
2022-08-19T18:09:42.353Z,99948.13
2022-08-19T18:12:12.748Z,99943.44
2022-08-19T18:14:40.499Z,99950.16
2022-08-19T18:17:13.167Z,99952.63
2022-08-19T18:19:43.297Z,99950.97
2022-08-19T18:22:12.725Z,99963.22
2022-08-19T18:24:41.465Z,99955.25
2022-08-19T18:27:07.973Z,99954.16
2022-08-19T18:29:38.131Z,99956.69
2022-08-19T18:32:05.496Z,99957.91
2022-08-19T18:34:31.913Z,99967.00
2022-08-19T18:36:58.307Z,99964.66
2022-08-19T18:39:44.418Z,99966.22
2022-08-19T18:42:36.925Z,99977.06
2022-08-19T18:45:27.903Z,99973.81
2022-08-19T18:48:26.543Z,99979.03
2022-08-19T18:50:56.064Z,99978.09
2022-08-19T18:53:22.503Z,99975.63
2022-08-19T18:55:51.870Z,99985.81
2022-08-19T18:58:18.288Z,99989.50
2022-08-19T19:00:44.817Z,100002.72
2022-08-19T19:03:11.688Z,99999.63
2022-08-19T19:05:39.883Z,100002.44
2022-08-19T19:08:07.120Z,100010.47
2022-08-19T19:10:35.414Z,100010.28
2022-08-19T19:13:02.012Z,100006.19
2022-08-19T19:15:29.392Z,100022.66
2022-08-19T19:17:56.044Z,100020.03
2022-08-19T19:20:36.159Z,100033.03
2022-08-19T19:23:03.746Z,100032.19
2022-08-19T19:25:50.249Z,100030.88
2022-08-19T19:28:16.736Z,100033.06
2022-08-19T19:30:43.193Z,100036.56
2022-08-19T19:33:09.608Z,100038.06
2022-08-19T19:35:36.030Z,100034.75
2022-08-19T19:38:02.437Z,100041.09
2022-08-19T19:40:29.369Z,100041.91
2022-08-19T19:42:55.893Z,100053.06
2022-08-19T19:45:23.322Z,100056.06
2022-08-19T19:47:50.176Z,100063.69
2022-08-19T19:50:17.912Z,100063.06
2022-08-19T19:52:45.893Z,100069.38
2022-08-19T19:55:17.811Z,100066.72
2022-08-19T19:57:48.738Z,100070.69
2022-08-19T20:00:18.715Z,100080.66
2022-08-19T20:02:49.279Z,100082.66
2022-08-19T20:05:19.135Z,100083.97
2022-08-19T20:08:03.976Z,100089.47
2022-08-19T20:10:32.273Z,100099.91
2022-08-19T20:13:02.321Z,100093.25
2022-08-19T20:15:29.391Z,100096.59
2022-08-19T20:17:55.911Z,100104.22
2022-08-19T20:20:23.565Z,100103.22
2022-08-19T20:22:50.027Z,100111.31
2022-08-19T20:25:18.840Z,100107.16
2022-08-19T20:27:49.017Z,100114.16
2022-08-19T20:30:19.395Z,100120.97
2022-08-19T20:32:46.883Z,100124.09
2022-08-19T20:35:15.225Z,100121.72
2022-08-19T20:37:41.643Z,100124.72
2022-08-19T20:40:10.039Z,100134.34
2022-08-19T20:42:40.349Z,100138.00
2022-08-19T20:45:21.635Z,100139.75
2022-08-19T20:47:58.611Z,100134.72
2022-08-19T20:50:26.062Z,100132.38
2022-08-19T20:52:56.418Z,100135.25
2022-08-19T20:55:22.971Z,100134.47
2022-08-19T20:57:50.069Z,100136.75
2022-08-19T21:00:16.686Z,100138.75
2022-08-19T21:02:43.096Z,100145.53
2022-08-19T21:05:09.656Z,100143.91
2022-08-19T21:07:39.002Z,100145.88
2022-08-19T21:10:06.804Z,100151.72
2022-08-19T21:12:33.524Z,100155.00
2022-08-19T21:15:00.125Z,100152.88
2022-08-19T21:17:26.524Z,100150.00
2022-08-19T21:19:52.966Z,100156.50
2022-08-19T21:22:19.412Z,100160.63
2022-08-19T21:24:45.806Z,100159.69
2022-08-19T21:27:12.280Z,100159.69
2022-08-19T21:29:40.445Z,100164.22
2022-08-19T21:32:07.055Z,100168.50
2022-08-19T21:34:33.487Z,100165.69
2022-08-19T21:36:59.975Z,100166.59
2022-08-19T21:39:26.472Z,100165.28
2022-08-19T21:41:53.038Z,100172.66
2022-08-19T21:44:19.555Z,100170.47
2022-08-19T21:46:45.990Z,100169.03
2022-08-19T21:49:16.999Z,100166.47
2022-08-19T21:51:43.413Z,100175.09
2022-08-19T21:54:14.204Z,100167.50
2022-08-19T21:56:41.055Z,100168.88
2022-08-19T21:59:07.634Z,100174.19
2022-08-19T22:01:34.151Z,100180.09
2022-08-19T22:04:00.625Z,100179.72
2022-08-19T22:06:27.057Z,100181.16
2022-08-19T22:08:56.686Z,100176.97
2022-08-19T22:11:24.729Z,100172.75
2022-08-19T22:13:56.079Z,100185.50
2022-08-19T22:16:24.160Z,100181.22
2022-08-19T22:18:53.956Z,100184.00
2022-08-19T22:21:39.654Z,100179.31
2022-08-19T22:24:06.560Z,100183.53
2022-08-19T22:26:33.017Z,100183.63
2022-08-19T22:29:00.696Z,100180.38
2022-08-19T22:31:28.527Z,100185.78
2022-08-19T22:33:55.709Z,100182.84
2022-08-19T22:36:22.115Z,100182.84
2022-08-19T22:38:48.626Z,100189.81
2022-08-19T22:41:16.242Z,100186.16
2022-08-19T22:43:42.972Z,100182.56
2022-08-19T22:46:16.996Z,100190.38
2022-08-19T22:48:44.615Z,100182.88
2022-08-19T22:51:29.388Z,100190.44
2022-08-19T22:53:57.176Z,100185.66
2022-08-19T22:56:23.729Z,100193.09
2022-08-19T22:58:52.972Z,100182.00
2022-08-19T23:01:27.255Z,100185.75
2022-08-19T23:03:58.422Z,100184.34
2022-08-19T23:06:26.960Z,100179.22
2022-08-19T23:08:59.828Z,100180.34
2022-08-19T23:11:26.326Z,100187.06
2022-08-19T23:13:53.097Z,100184.41
2022-08-19T23:16:19.539Z,100194.06
2022-08-19T23:18:46.816Z,100185.69
2022-08-19T23:21:13.419Z,100181.66
2022-08-19T23:23:41.433Z,100180.41
2022-08-19T23:26:11.746Z,100177.78
2022-08-19T23:28:57.251Z,100176.66
2022-08-19T23:31:26.493Z,100175.53
2022-08-19T23:33:53.435Z,100177.63
2022-08-19T23:36:21.031Z,100180.00
2022-08-19T23:38:49.608Z,100171.81
2022-08-19T23:41:18.555Z,100179.03
2022-08-19T23:43:45.653Z,100178.88
2022-08-19T23:46:27.273Z,100174.84
2022-08-19T23:48:55.566Z,100169.94
2022-08-19T23:51:22.061Z,100175.69
2022-08-19T23:53:48.487Z,100172.50
2022-08-19T23:56:14.956Z,100171.91
2022-08-19T23:58:41.427Z,100166.63
